Weather at Félix-Houphouët-Boigny International Airport

Public forecast

Using degrees Celsius for public forecast. Weather courtesy of forecast.io.

Current aviation weather report (METAR) for Félix-Houphouët-Boigny International Airport

Retrieved 2021/09/18 20:00 UTC (7 minutes ago):

DIAP 182000Z 20005KT 9999 FEW010 25/24 Q1012 NOSIG

Aviation forecast (TAF) for Félix-Houphouët-Boigny International Airport

Retrieved 2021/09/18 18:03 UTC (2 hours ago):

TAF COR DIAP 181722Z 1818/1924 20010KT 9999 SCT012 PROB30 TEMPO 1818/1820 TS BKN012 FEW020CB PROB30 TEMPO 1820/1823 4500 RA BKN010 BKN030 PROB40 TEMPO 1905/1909 4000 DZ BR BKN010 PROB30 TEMPO 1915/1918 BKN012 FEW020CB